sensor_id;sensor_type;location;lat;lon;timestamp;temperature;humidity
68354;DHT22;55274;43.060;25.618;2022-11-09T00:00:43;9.20;97.50
68354;DHT22;55274;43.060;25.618;2022-11-09T00:03:09;9.20;97.40
68354;DHT22;55274;43.060;25.618;2022-11-09T00:05:35;9.20;97.30
68354;DHT22;55274;43.060;25.618;2022-11-09T00:08:04;9.20;97.10
68354;DHT22;55274;43.060;25.618;2022-11-09T00:10:31;9.10;97.50
68354;DHT22;55274;43.060;25.618;2022-11-09T00:12:57;9.10;97.40
68354;DHT22;55274;43.060;25.618;2022-11-09T00:15:23;9.10;97.40
68354;DHT22;55274;43.060;25.618;2022-11-09T00:17:48;9.00;97.40
68354;DHT22;55274;43.060;25.618;2022-11-09T00:20:14;9.00;97.50
68354;DHT22;55274;43.060;25.618;2022-11-09T00:22:40;9.00;97.20
68354;DHT22;55274;43.060;25.618;2022-11-09T00:25:06;9.00;97.40
68354;DHT22;55274;43.060;25.618;2022-11-09T00:27:32;8.90;97.60
68354;DHT22;55274;43.060;25.618;2022-11-09T00:29:58;8.90;97.80
68354;DHT22;55274;43.060;25.618;2022-11-09T00:32:23;8.90;97.80
68354;DHT22;55274;43.060;25.618;2022-11-09T00:34:49;8.90;97.80
68354;DHT22;55274;43.060;25.618;2022-11-09T00:37:15;8.90;97.60
68354;DHT22;55274;43.060;25.618;2022-11-09T00:39:41;8.90;97.30
68354;DHT22;55274;43.060;25.618;2022-11-09T00:42:06;8.80;97.40
68354;DHT22;55274;43.060;25.618;2022-11-09T00:44:32;8.80;97.00
68354;DHT22;55274;43.060;25.618;2022-11-09T00:46:58;8.80;97.30
68354;DHT22;55274;43.060;25.618;2022-11-09T00:49:24;8.80;97.60
68354;DHT22;55274;43.060;25.618;2022-11-09T00:51:49;8.80;97.50
68354;DHT22;55274;43.060;25.618;2022-11-09T00:54:15;8.80;97.40
68354;DHT22;55274;43.060;25.618;2022-11-09T00:56:42;8.80;97.40
68354;DHT22;55274;43.060;25.618;2022-11-09T00:59:09;8.70;97.90
68354;DHT22;55274;43.060;25.618;2022-11-09T01:01:36;8.70;98.00
68354;DHT22;55274;43.060;25.618;2022-11-09T01:04:02;8.70;98.00
68354;DHT22;55274;43.060;25.618;2022-11-09T01:06:28;8.70;98.10
68354;DHT22;55274;43.060;25.618;2022-11-09T01:08:54;8.80;98.10
68354;DHT22;55274;43.060;25.618;2022-11-09T01:11:21;8.80;98.20
68354;DHT22;55274;43.060;25.618;2022-11-09T01:13:47;8.70;98.40
68354;DHT22;55274;43.060;25.618;2022-11-09T01:16:19;8.70;98.40
68354;DHT22;55274;43.060;25.618;2022-11-09T01:18:45;8.70;99.00
68354;DHT22;55274;43.060;25.618;2022-11-09T01:21:13;8.70;99.30
68354;DHT22;55274;43.060;25.618;2022-11-09T01:23:39;8.80;99.50
68354;DHT22;55274;43.060;25.618;2022-11-09T01:26:07;8.80;99.20
68354;DHT22;55274;43.060;25.618;2022-11-09T01:28:33;8.90;99.10
68354;DHT22;55274;43.060;25.618;2022-11-09T01:31:02;8.90;98.90
68354;DHT22;55274;43.060;25.618;2022-11-09T01:33:28;9.00;98.80
68354;DHT22;55274;43.060;25.618;2022-11-09T01:35:53;8.90;98.90
68354;DHT22;55274;43.060;25.618;2022-11-09T01:38:19;8.90;99.10
68354;DHT22;55274;43.060;25.618;2022-11-09T01:40:45;9.00;99.10
68354;DHT22;55274;43.060;25.618;2022-11-09T01:43:15;8.90;99.10
68354;DHT22;55274;43.060;25.618;2022-11-09T01:45:44;9.00;99.20
68354;DHT22;55274;43.060;25.618;2022-11-09T01:48:16;9.00;99.20
68354;DHT22;55274;43.060;25.618;2022-11-09T01:50:54;9.00;99.10
68354;DHT22;55274;43.060;25.618;2022-11-09T01:53:30;9.00;98.80
68354;DHT22;55274;43.060;25.618;2022-11-09T01:56:00;9.00;99.00
68354;DHT22;55274;43.060;25.618;2022-11-09T01:58:31;9.00;99.20
68354;DHT22;55274;43.060;25.618;2022-11-09T02:00:59;9.00;99.20
68354;DHT22;55274;43.060;25.618;2022-11-09T02:03:34;9.10;99.20
68354;DHT22;55274;43.060;25.618;2022-11-09T02:06:04;9.10;99.10
68354;DHT22;55274;43.060;25.618;2022-11-09T02:08:31;9.10;98.90
68354;DHT22;55274;43.060;25.618;2022-11-09T02:11:10;9.00;99.00
68354;DHT22;55274;43.060;25.618;2022-11-09T02:13:38;9.00;99.20
68354;DHT22;55274;43.060;25.618;2022-11-09T02:16:07;9.00;99.60
68354;DHT22;55274;43.060;25.618;2022-11-09T02:18:35;9.00;99.70
68354;DHT22;55274;43.060;25.618;2022-11-09T02:21:04;9.00;99.70
68354;DHT22;55274;43.060;25.618;2022-11-09T02:23:30;9.10;99.70
68354;DHT22;55274;43.060;25.618;2022-11-09T02:26:04;9.20;99.20
68354;DHT22;55274;43.060;25.618;2022-11-09T02:28:31;9.20;99.00
68354;DHT22;55274;43.060;25.618;2022-11-09T02:30:57;9.20;99.20
68354;DHT22;55274;43.060;25.618;2022-11-09T02:33:23;9.20;99.20
68354;DHT22;55274;43.060;25.618;2022-11-09T02:35:49;9.20;99.30
68354;DHT22;55274;43.060;25.618;2022-11-09T02:38:15;9.20;99.40
68354;DHT22;55274;43.060;25.618;2022-11-09T02:40:44;9.20;99.50
68354;DHT22;55274;43.060;25.618;2022-11-09T02:43:13;9.20;99.60
68354;DHT22;55274;43.060;25.618;2022-11-09T02:45:39;9.20;99.60
68354;DHT22;55274;43.060;25.618;2022-11-09T02:48:05;9.20;99.60
68354;DHT22;55274;43.060;25.618;2022-11-09T02:50:31;9.20;99.60
68354;DHT22;55274;43.060;25.618;2022-11-09T02:52:57;9.20;99.60
68354;DHT22;55274;43.060;25.618;2022-11-09T02:55:23;9.20;99.70
68354;DHT22;55274;43.060;25.618;2022-11-09T02:57:49;9.30;99.80
68354;DHT22;55274;43.060;25.618;2022-11-09T03:00:15;9.30;99.60
68354;DHT22;55274;43.060;25.618;2022-11-09T03:02:41;9.30;99.70
68354;DHT22;55274;43.060;25.618;2022-11-09T03:05:07;9.30;99.50
68354;DHT22;55274;43.060;25.618;2022-11-09T03:07:33;9.30;99.30
68354;DHT22;55274;43.060;25.618;2022-11-09T03:09:58;9.30;99.20
68354;DHT22;55274;43.060;25.618;2022-11-09T03:12:24;9.30;99.30
68354;DHT22;55274;43.060;25.618;2022-11-09T03:14:56;9.30;99.40
68354;DHT22;55274;43.060;25.618;2022-11-09T03:17:22;9.30;99.50
68354;DHT22;55274;43.060;25.618;2022-11-09T03:19:49;9.30;99.50
68354;DHT22;55274;43.060;25.618;2022-11-09T03:22:15;9.30;99.60
68354;DHT22;55274;43.060;25.618;2022-11-09T03:24:40;9.30;99.70
68354;DHT22;55274;43.060;25.618;2022-11-09T03:27:06;9.30;99.50
68354;DHT22;55274;43.060;25.618;2022-11-09T03:29:32;9.40;99.40
68354;DHT22;55274;43.060;25.618;2022-11-09T03:31:58;9.40;99.30
68354;DHT22;55274;43.060;25.618;2022-11-09T03:34:24;9.40;99.20
68354;DHT22;55274;43.060;25.618;2022-11-09T03:36:49;9.40;99.30
68354;DHT22;55274;43.060;25.618;2022-11-09T03:39:15;9.40;99.20
68354;DHT22;55274;43.060;25.618;2022-11-09T03:41:41;9.40;99.20
68354;DHT22;55274;43.060;25.618;2022-11-09T03:44:07;9.40;99.20
68354;DHT22;55274;43.060;25.618;2022-11-09T03:46:32;9.40;99.10
68354;DHT22;55274;43.060;25.618;2022-11-09T03:48:58;9.40;99.00
68354;DHT22;55274;43.060;25.618;2022-11-09T03:51:24;9.40;99.00
68354;DHT22;55274;43.060;25.618;2022-11-09T03:53:50;9.50;99.00
68354;DHT22;55274;43.060;25.618;2022-11-09T03:56:16;9.50;99.00
68354;DHT22;55274;43.060;25.618;2022-11-09T03:58:42;9.50;98.90
68354;DHT22;55274;43.060;25.618;2022-11-09T04:01:07;9.50;98.80
68354;DHT22;55274;43.060;25.618;2022-11-09T04:03:33;9.50;99.00
68354;DHT22;55274;43.060;25.618;2022-11-09T04:05:59;9.50;99.00
68354;DHT22;55274;43.060;25.618;2022-11-09T04:08:25;9.50;98.80
68354;DHT22;55274;43.060;25.618;2022-11-09T04:10:50;9.60;98.80
68354;DHT22;55274;43.060;25.618;2022-11-09T04:13:16;9.60;98.70
68354;DHT22;55274;43.060;25.618;2022-11-09T04:15:42;9.60;98.70
68354;DHT22;55274;43.060;25.618;2022-11-09T04:18:11;9.60;98.80
68354;DHT22;55274;43.060;25.618;2022-11-09T04:20:37;9.60;99.00
68354;DHT22;55274;43.060;25.618;2022-11-09T04:23:04;9.50;99.30
68354;DHT22;55274;43.060;25.618;2022-11-09T04:25:32;9.50;99.20
68354;DHT22;55274;43.060;25.618;2022-11-09T04:27:59;9.50;99.20
68354;DHT22;55274;43.060;25.618;2022-11-09T04:30:27;9.60;99.20
68354;DHT22;55274;43.060;25.618;2022-11-09T04:32:54;9.50;99.30
68354;DHT22;55274;43.060;25.618;2022-11-09T04:35:20;9.50;99.40
68354;DHT22;55274;43.060;25.618;2022-11-09T04:38:00;9.50;99.50
68354;DHT22;55274;43.060;25.618;2022-11-09T04:40:29;9.50;99.50
68354;DHT22;55274;43.060;25.618;2022-11-09T04:42:58;9.50;99.40
68354;DHT22;55274;43.060;25.618;2022-11-09T04:45:24;9.50;99.40
68354;DHT22;55274;43.060;25.618;2022-11-09T04:47:50;9.50;99.50
68354;DHT22;55274;43.060;25.618;2022-11-09T04:50:16;9.50;99.40
68354;DHT22;55274;43.060;25.618;2022-11-09T04:52:42;9.50;99.30
68354;DHT22;55274;43.060;25.618;2022-11-09T04:55:08;9.50;99.50
68354;DHT22;55274;43.060;25.618;2022-11-09T04:57:33;9.60;99.50
68354;DHT22;55274;43.060;25.618;2022-11-09T04:59:59;9.60;99.50
68354;DHT22;55274;43.060;25.618;2022-11-09T05:02:25;9.60;99.60
68354;DHT22;55274;43.060;25.618;2022-11-09T05:04:51;9.60;99.50
68354;DHT22;55274;43.060;25.618;2022-11-09T05:07:16;9.60;99.40
68354;DHT22;55274;43.060;25.618;2022-11-09T05:09:42;9.70;99.50
68354;DHT22;55274;43.060;25.618;2022-11-09T05:12:10;9.60;99.10
68354;DHT22;55274;43.060;25.618;2022-11-09T05:14:35;9.60;99.40
68354;DHT22;55274;43.060;25.618;2022-11-09T05:17:02;9.70;99.30
68354;DHT22;55274;43.060;25.618;2022-11-09T05:19:28;9.70;99.00
68354;DHT22;55274;43.060;25.618;2022-11-09T05:21:54;9.70;99.00
68354;DHT22;55274;43.060;25.618;2022-11-09T05:24:19;9.70;99.00
68354;DHT22;55274;43.060;25.618;2022-11-09T05:26:45;9.70;98.80
68354;DHT22;55274;43.060;25.618;2022-11-09T05:29:12;9.80;98.80
68354;DHT22;55274;43.060;25.618;2022-11-09T05:31:40;9.80;98.80
68354;DHT22;55274;43.060;25.618;2022-11-09T05:34:09;9.80;98.70
68354;DHT22;55274;43.060;25.618;2022-11-09T05:36:36;9.80;98.60
68354;DHT22;55274;43.060;25.618;2022-11-09T05:39:02;9.80;98.70
68354;DHT22;55274;43.060;25.618;2022-11-09T05:41:28;9.90;98.50
68354;DHT22;55274;43.060;25.618;2022-11-09T05:43:54;9.90;98.40
68354;DHT22;55274;43.060;25.618;2022-11-09T05:46:20;9.90;98.40
68354;DHT22;55274;43.060;25.618;2022-11-09T05:48:46;10.00;98.70
68354;DHT22;55274;43.060;25.618;2022-11-09T05:51:13;10.00;98.80
68354;DHT22;55274;43.060;25.618;2022-11-09T05:53:39;10.00;98.80
68354;DHT22;55274;43.060;25.618;2022-11-09T05:56:07;10.00;98.80
68354;DHT22;55274;43.060;25.618;2022-11-09T05:58:34;10.10;98.70
68354;DHT22;55274;43.060;25.618;2022-11-09T06:01:14;10.10;98.60
68354;DHT22;55274;43.060;25.618;2022-11-09T06:03:40;10.10;98.20
68354;DHT22;55274;43.060;25.618;2022-11-09T06:06:10;10.20;98.00
68354;DHT22;55274;43.060;25.618;2022-11-09T06:08:36;10.20;97.80
68354;DHT22;55274;43.060;25.618;2022-11-09T06:11:05;10.30;97.80
68354;DHT22;55274;43.060;25.618;2022-11-09T06:13:32;10.40;97.50
68354;DHT22;55274;43.060;25.618;2022-11-09T06:16:00;10.50;97.20
68354;DHT22;55274;43.060;25.618;2022-11-09T06:18:30;10.50;97.20
68354;DHT22;55274;43.060;25.618;2022-11-09T06:20:58;10.60;96.70
68354;DHT22;55274;43.060;25.618;2022-11-09T06:23:25;10.70;96.60
68354;DHT22;55274;43.060;25.618;2022-11-09T06:26:05;10.80;97.00
68354;DHT22;55274;43.060;25.618;2022-11-09T06:28:31;10.90;96.90
68354;DHT22;55274;43.060;25.618;2022-11-09T06:30:59;11.00;96.10
68354;DHT22;55274;43.060;25.618;2022-11-09T06:33:25;11.10;95.70
68354;DHT22;55274;43.060;25.618;2022-11-09T06:35:51;11.30;96.10
68354;DHT22;55274;43.060;25.618;2022-11-09T06:38:17;11.50;94.20
68354;DHT22;55274;43.060;25.618;2022-11-09T06:40:42;11.80;93.90
68354;DHT22;55274;43.060;25.618;2022-11-09T06:43:08;12.20;92.50
68354;DHT22;55274;43.060;25.618;2022-11-09T06:45:34;12.50;92.00
68354;DHT22;55274;43.060;25.618;2022-11-09T06:48:02;13.00;91.10
68354;DHT22;55274;43.060;25.618;2022-11-09T06:50:30;13.40;87.90
68354;DHT22;55274;43.060;25.618;2022-11-09T06:52:58;13.70;86.60
68354;DHT22;55274;43.060;25.618;2022-11-09T06:55:26;13.80;85.30
68354;DHT22;55274;43.060;25.618;2022-11-09T06:57:53;14.30;85.50
68354;DHT22;55274;43.060;25.618;2022-11-09T07:00:19;14.60;83.60
68354;DHT22;55274;43.060;25.618;2022-11-09T07:02:45;14.60;82.70
68354;DHT22;55274;43.060;25.618;2022-11-09T07:05:11;14.50;81.90
68354;DHT22;55274;43.060;25.618;2022-11-09T07:07:37;14.50;82.10
68354;DHT22;55274;43.060;25.618;2022-11-09T07:10:03;14.40;81.80
68354;DHT22;55274;43.060;25.618;2022-11-09T07:12:29;14.30;82.80
68354;DHT22;55274;43.060;25.618;2022-11-09T07:14:55;14.60;81.80
68354;DHT22;55274;43.060;25.618;2022-11-09T07:17:20;15.10;81.60
68354;DHT22;55274;43.060;25.618;2022-11-09T07:19:46;15.60;80.00
68354;DHT22;55274;43.060;25.618;2022-11-09T07:22:12;15.80;78.60
68354;DHT22;55274;43.060;25.618;2022-11-09T07:24:38;16.10;77.30
68354;DHT22;55274;43.060;25.618;2022-11-09T07:27:03;16.20;76.40
68354;DHT22;55274;43.060;25.618;2022-11-09T07:29:29;16.20;76.20
68354;DHT22;55274;43.060;25.618;2022-11-09T07:31:55;16.20;76.30
68354;DHT22;55274;43.060;25.618;2022-11-09T07:34:21;16.20;75.50
68354;DHT22;55274;43.060;25.618;2022-11-09T07:36:46;16.20;76.00
68354;DHT22;55274;43.060;25.618;2022-11-09T07:39:12;16.20;75.70
68354;DHT22;55274;43.060;25.618;2022-11-09T07:41:38;16.40;75.50
68354;DHT22;55274;43.060;25.618;2022-11-09T07:44:04;16.50;75.50
68354;DHT22;55274;43.060;25.618;2022-11-09T07:46:30;16.70;74.40
68354;DHT22;55274;43.060;25.618;2022-11-09T07:48:55;16.90;74.60
68354;DHT22;55274;43.060;25.618;2022-11-09T07:51:21;16.90;74.00
68354;DHT22;55274;43.060;25.618;2022-11-09T07:53:47;17.00;73.30
68354;DHT22;55274;43.060;25.618;2022-11-09T07:56:13;17.10;72.80
68354;DHT22;55274;43.060;25.618;2022-11-09T07:58:38;17.20;73.00
68354;DHT22;55274;43.060;25.618;2022-11-09T08:01:09;17.40;73.00
68354;DHT22;55274;43.060;25.618;2022-11-09T08:03:35;17.50;71.80
68354;DHT22;55274;43.060;25.618;2022-11-09T08:06:01;17.60;71.60
68354;DHT22;55274;43.060;25.618;2022-11-09T08:08:27;17.80;71.20
68354;DHT22;55274;43.060;25.618;2022-11-09T08:10:55;18.00;70.50
68354;DHT22;55274;43.060;25.618;2022-11-09T08:13:21;18.10;70.50
68354;DHT22;55274;43.060;25.618;2022-11-09T08:15:47;18.30;70.10
68354;DHT22;55274;43.060;25.618;2022-11-09T08:18:20;18.40;69.30
68354;DHT22;55274;43.060;25.618;2022-11-09T08:20:47;18.70;68.50
68354;DHT22;55274;43.060;25.618;2022-11-09T08:23:15;18.80;66.60
68354;DHT22;55274;43.060;25.618;2022-11-09T08:25:42;19.00;66.60
68354;DHT22;55274;43.060;25.618;2022-11-09T08:28:08;19.10;65.70
68354;DHT22;55274;43.060;25.618;2022-11-09T08:30:34;19.20;66.40
68354;DHT22;55274;43.060;25.618;2022-11-09T08:33:01;19.30;65.60
68354;DHT22;55274;43.060;25.618;2022-11-09T08:35:27;19.40;65.00
68354;DHT22;55274;43.060;25.618;2022-11-09T08:37:53;19.50;64.30
68354;DHT22;55274;43.060;25.618;2022-11-09T08:40:22;19.70;63.40
68354;DHT22;55274;43.060;25.618;2022-11-09T08:42:48;19.70;63.20
68354;DHT22;55274;43.060;25.618;2022-11-09T08:45:14;19.90;63.30
68354;DHT22;55274;43.060;25.618;2022-11-09T08:47:40;20.00;63.10
68354;DHT22;55274;43.060;25.618;2022-11-09T08:50:07;20.00;62.20
68354;DHT22;55274;43.060;25.618;2022-11-09T08:52:33;20.20;62.60
68354;DHT22;55274;43.060;25.618;2022-11-09T08:54:59;20.40;61.10
68354;DHT22;55274;43.060;25.618;2022-11-09T08:57:26;20.50;61.30
68354;DHT22;55274;43.060;25.618;2022-11-09T08:59:52;20.60;60.10
68354;DHT22;55274;43.060;25.618;2022-11-09T09:02:17;20.70;60.80
68354;DHT22;55274;43.060;25.618;2022-11-09T09:04:43;20.70;60.20
68354;DHT22;55274;43.060;25.618;2022-11-09T09:07:09;20.90;60.50
68354;DHT22;55274;43.060;25.618;2022-11-09T09:09:35;21.00;59.70
68354;DHT22;55274;43.060;25.618;2022-11-09T09:12:03;21.10;59.30
68354;DHT22;55274;43.060;25.618;2022-11-09T09:14:29;21.20;59.00
68354;DHT22;55274;43.060;25.618;2022-11-09T09:16:55;21.40;58.90
68354;DHT22;55274;43.060;25.618;2022-11-09T09:19:21;21.40;58.20
68354;DHT22;55274;43.060;25.618;2022-11-09T09:21:47;21.60;58.20
68354;DHT22;55274;43.060;25.618;2022-11-09T09:24:13;21.60;57.10
68354;DHT22;55274;43.060;25.618;2022-11-09T09:26:39;21.70;57.50
68354;DHT22;55274;43.060;25.618;2022-11-09T09:29:04;21.80;56.70
68354;DHT22;55274;43.060;25.618;2022-11-09T09:31:30;21.90;56.50
68354;DHT22;55274;43.060;25.618;2022-11-09T09:33:56;21.90;56.10
68354;DHT22;55274;43.060;25.618;2022-11-09T09:36:23;22.00;54.80
68354;DHT22;55274;43.060;25.618;2022-11-09T09:38:53;22.00;55.30
68354;DHT22;55274;43.060;25.618;2022-11-09T09:49:57;22.40;53.50
68354;DHT22;55274;43.060;25.618;2022-11-09T09:52:36;22.50;53.60
68354;DHT22;55274;43.060;25.618;2022-11-09T09:58:01;22.30;53.20
68354;DHT22;55274;43.060;25.618;2022-11-09T10:00:29;22.40;53.20
68354;DHT22;55274;43.060;25.618;2022-11-09T10:02:56;22.40;52.50
68354;DHT22;55274;43.060;25.618;2022-11-09T10:08:27;22.60;52.20
68354;DHT22;55274;43.060;25.618;2022-11-09T10:22:04;22.60;52.10
68354;DHT22;55274;43.060;25.618;2022-11-09T10:27:26;22.20;53.10
68354;DHT22;55274;43.060;25.618;2022-11-09T10:29:53;22.20;52.20
68354;DHT22;55274;43.060;25.618;2022-11-09T10:32:21;22.30;52.20
68354;DHT22;55274;43.060;25.618;2022-11-09T10:35:03;22.30;51.80
68354;DHT22;55274;43.060;25.618;2022-11-09T10:37:33;22.30;52.40
68354;DHT22;55274;43.060;25.618;2022-11-09T10:42:34;22.00;53.20
68354;DHT22;55274;43.060;25.618;2022-11-09T10:45:11;22.10;52.90
68354;DHT22;55274;43.060;25.618;2022-11-09T10:47:50;22.20;52.80
68354;DHT22;55274;43.060;25.618;2022-11-09T10:52:51;21.90;52.90
68354;DHT22;55274;43.060;25.618;2022-11-09T10:55:26;21.60;53.20
68354;DHT22;55274;43.060;25.618;2022-11-09T10:58:01;21.60;53.90
68354;DHT22;55274;43.060;25.618;2022-11-09T11:00:27;21.70;54.00
68354;DHT22;55274;43.060;25.618;2022-11-09T11:02:54;21.70;53.60
68354;DHT22;55274;43.060;25.618;2022-11-09T11:05:26;21.80;53.90
68354;DHT22;55274;43.060;25.618;2022-11-09T11:07:52;21.50;54.10
68354;DHT22;55274;43.060;25.618;2022-11-09T11:10:21;21.50;54.30
68354;DHT22;55274;43.060;25.618;2022-11-09T11:13:20;21.20;54.50
68354;DHT22;55274;43.060;25.618;2022-11-09T11:15:46;21.00;54.40
68354;DHT22;55274;43.060;25.618;2022-11-09T11:18:19;20.60;55.80
68354;DHT22;55274;43.060;25.618;2022-11-09T11:20:48;20.30;56.40
68354;DHT22;55274;43.060;25.618;2022-11-09T11:23:28;20.20;56.80
68354;DHT22;55274;43.060;25.618;2022-11-09T11:30:58;20.10;57.20
68354;DHT22;55274;43.060;25.618;2022-11-09T11:33:24;20.10;56.80
68354;DHT22;55274;43.060;25.618;2022-11-09T11:38:33;19.90;57.00
